Time;durP1;ratioP1;P1;durP2;ratioP2;P2;SDS_P1;SDS_P2;PMS_P1;PMS_P2;Temp;Humidity;BMP_temperature;BMP_pressure;BME280_temperature;BME280_humidity;BME280_pressure;Samples;Min_cycle;Max_cycle;Signal;HPM_P1;HPM_P2
2021/10/07 00:01:54;;;;;;;10.60;3.25;;;;;;;8.40;74.89;97164.53;5052673;28;20017;-62
2021/10/07 00:04:20;;;;;;;7.55;3.13;;;;;;;8.33;75.05;97158.59;5056357;28;20051;-62
2021/10/07 00:06:45;;;;;;;15.23;3.15;;;;;;;8.30;74.98;97163.88;5056489;28;20025;-62
2021/10/07 00:09:11;;;;;;;7.65;3.00;;;;;;;8.26;74.94;97163.94;5056502;28;20028;-63
2021/10/07 00:11:37;;;;;;;13.77;3.17;;;;;;;8.20;75.35;97164.91;5056264;28;20479;-62
2021/10/07 00:14:04;;;;;;;9.50;3.30;;;;;;;8.16;75.24;97160.66;5056361;28;20041;-62
2021/10/07 00:16:30;;;;;;;13.88;3.20;;;;;;;8.06;75.24;97162.56;5056297;28;20553;-62
2021/10/07 00:18:55;;;;;;;9.18;3.35;;;;;;;8.04;75.70;97164.34;5056310;28;20102;-62
2021/10/07 00:21:21;;;;;;;9.80;3.28;;;;;;;8.02;75.38;97160.91;5056146;28;20025;-62
2021/10/07 00:24:07;;;;;;;7.82;3.13;;;;;;;8.02;75.41;97161.78;5056164;28;20016;-62
2021/10/07 00:26:34;;;;;;;8.38;3.25;;;;;;;7.97;75.25;97164.44;5056174;28;20463;-62
2021/10/07 00:29:14;;;;;;;5.93;2.92;;;;;;;7.95;75.33;97174.03;5054876;28;20021;-62
2021/10/07 00:31:41;;;;;;;5.70;3.20;;;;;;;7.98;74.04;97170.53;5056086;28;20419;-62
2021/10/07 00:39:05;;;;;;;9.80;3.30;;;;;;;7.91;75.34;97154.13;5055958;28;20474;-62
2021/10/07 00:41:42;;;;;;;7.70;2.90;;;;;;;7.79;75.11;97146.53;5055920;28;20029;-62
2021/10/07 00:44:09;;;;;;;5.68;3.50;;;;;;;7.64;75.12;97142.44;5055853;28;20017;-62
2021/10/07 00:46:46;;;;;;;7.82;2.85;;;;;;;7.59;75.89;97145.97;5055695;28;20036;-62
2021/10/07 00:49:11;;;;;;;4.05;2.67;;;;;;;7.59;75.84;97148.56;5055862;28;20029;-62
2021/10/07 00:51:37;;;;;;;8.32;3.42;;;;;;;7.59;75.78;97137.31;5055671;28;20032;-62
2021/10/07 00:54:03;;;;;;;9.90;3.22;;;;;;;7.61;75.33;97137.28;5055659;28;20029;-62
2021/10/07 00:56:28;;;;;;;7.82;2.85;;;;;;;7.57;75.49;97129.53;5055495;28;20035;-62
2021/10/07 00:58:54;;;;;;;11.52;2.97;;;;;;;7.54;76.72;97123.50;5055504;28;20028;-62
2021/10/07 01:01:20;;;;;;;12.52;5.82;;;;;;;7.57;75.83;97124.31;5055483;28;20032;-62
2021/10/07 01:03:45;;;;;;;9.73;3.40;;;;;;;7.44;75.97;97128.84;5055604;28;20021;-62
2021/10/07 01:06:11;;;;;;;5.15;2.78;;;;;;;7.43;76.04;97121.06;5055477;28;20486;-62
2021/10/07 01:08:37;;;;;;;11.00;4.03;;;;;;;7.41;76.47;97126.28;5055282;28;20025;-62
2021/10/07 01:11:02;;;;;;;11.60;3.50;;;;;;;7.38;77.30;97118.56;5055224;28;20056;-62
2021/10/07 01:13:28;;;;;;;20.63;6.50;;;;;;;7.33;77.31;97116.03;5055051;28;20162;-62
2021/10/07 01:16:00;;;;;;;9.93;3.70;;;;;;;7.35;77.39;97126.41;5055213;28;20033;-62
2021/10/07 01:18:26;;;;;;;15.20;3.75;;;;;;;7.36;76.82;97128.13;5055239;28;20479;-63
2021/10/07 01:20:51;;;;;;;10.55;3.55;;;;;;;7.40;77.30;97134.13;5054990;28;20029;-62
2021/10/07 01:23:17;;;;;;;11.73;3.72;;;;;;;7.37;77.84;97129.84;5055066;28;20013;-62
2021/10/07 01:25:43;;;;;;;7.40;3.53;;;;;;;7.37;80.17;97139.41;5054973;28;20457;-62
2021/10/07 01:28:08;;;;;;;7.53;4.15;;;;;;;7.38;81.57;97128.97;5055091;28;20078;-63
2021/10/07 01:30:34;;;;;;;16.52;4.30;;;;;;;7.36;81.88;97122.94;5054962;28;20021;-62
2021/10/07 01:33:00;;;;;;;10.48;3.70;;;;;;;7.41;81.20;97125.47;5054862;28;20013;-62
2021/10/07 01:35:25;;;;;;;15.93;3.92;;;;;;;7.49;80.32;97139.19;5054705;28;20067;-62
2021/10/07 01:37:52;;;;;;;8.05;3.25;;;;;;;7.52;78.88;97140.88;5054516;28;20483;-62
2021/10/07 01:40:17;;;;;;;6.47;3.42;;;;;;;7.55;77.46;97141.72;5054738;28;20027;-62
2021/10/07 01:42:43;;;;;;;13.05;3.55;;;;;;;7.54;76.52;97129.59;5054695;28;20057;-62
2021/10/07 01:45:10;;;;;;;5.93;3.00;;;;;;;7.48;76.83;97119.25;5054582;28;20041;-62
2021/10/07 01:47:36;;;;;;;9.90;3.10;;;;;;;7.43;77.66;97108.94;5054503;28;20036;-62
2021/10/07 01:50:02;;;;;;;6.03;3.00;;;;;;;7.43;77.38;97103.72;5054537;28;20032;-62
2021/10/07 01:52:28;;;;;;;10.65;3.40;;;;;;;7.45;76.73;97104.56;5054483;28;20028;-63
2021/10/07 01:54:53;;;;;;;9.70;3.15;;;;;;;7.39;76.89;97104.66;5054385;28;20013;-62
2021/10/07 01:57:19;;;;;;;7.95;2.72;;;;;;;7.40;76.02;97105.50;5054350;28;20028;-62
2021/10/07 01:59:44;;;;;;;8.70;3.00;;;;;;;7.43;75.64;97103.72;5054337;28;20021;-62
2021/10/07 02:02:10;;;;;;;8.57;3.03;;;;;;;7.44;74.97;97105.44;5054388;28;20029;-62
2021/10/07 02:04:35;;;;;;;8.85;3.00;;;;;;;7.44;75.64;97107.19;5054351;28;20049;-62
2021/10/07 02:07:01;;;;;;;7.82;2.97;;;;;;;7.48;75.06;97108.84;5054164;28;20047;-62
2021/10/07 02:09:26;;;;;;;10.98;3.05;;;;;;;7.47;74.99;97094.13;5054030;28;20092;-62
2021/10/07 02:11:52;;;;;;;9.30;2.88;;;;;;;7.44;75.72;97094.16;5054124;28;20032;-62
2021/10/07 02:14:17;;;;;;;5.85;2.85;;;;;;;7.37;75.90;97090.78;5054035;28;20071;-62
2021/10/07 02:16:43;;;;;;;7.82;3.30;;;;;;;7.34;75.80;97088.25;5054097;28;20056;-62
2021/10/07 02:19:09;;;;;;;9.50;3.13;;;;;;;7.35;75.07;97095.19;5053898;28;20088;-62
2021/10/07 02:21:34;;;;;;;6.05;2.72;;;;;;;7.40;74.86;97106.38;5053827;28;20108;-62
2021/10/07 02:24:00;;;;;;;8.07;2.78;;;;;;;7.35;74.88;97115.13;5053877;28;20417;-62
2021/10/07 02:26:25;;;;;;;12.70;2.95;;;;;;;7.25;75.05;97112.66;5053269;28;20017;-62
2021/10/07 02:28:51;;;;;;;6.05;2.88;;;;;;;7.31;75.26;97114.31;5053946;28;20051;-62
2021/10/07 02:31:16;;;;;;;11.63;3.17;;;;;;;7.30;76.17;97120.41;5053847;28;20064;-62
2021/10/07 02:33:42;;;;;;;8.60;2.55;;;;;;;7.30;75.62;97117.81;5053626;28;20131;-62
2021/10/07 02:36:08;;;;;;;13.18;3.50;;;;;;;7.28;75.99;97114.34;5053237;28;20060;-62
2021/10/07 02:38:34;;;;;;;7.40;2.78;;;;;;;7.21;76.24;97111.00;5053601;28;20028;-62
2021/10/07 02:41:00;;;;;;;5.75;3.45;;;;;;;7.19;75.66;97102.34;5053573;28;20042;-62
2021/10/07 02:43:25;;;;;;;2.92;2.30;;;;;;;7.14;76.01;97101.56;5053710;28;20017;-62
2021/10/07 02:45:51;;;;;;;8.10;3.08;;;;;;;7.01;76.17;97098.31;5053517;28;20497;-62
2021/10/07 02:48:16;;;;;;;10.57;3.30;;;;;;;7.02;76.24;97113.03;5053365;28;20147;-62
2021/10/07 02:50:42;;;;;;;9.43;2.75;;;;;;;7.01;76.20;97124.31;5053512;28;20021;-62
2021/10/07 02:53:07;;;;;;;11.40;3.97;;;;;;;6.98;75.99;97122.59;5053460;28;20017;-61
2021/10/07 02:55:33;;;;;;;4.07;2.30;;;;;;;6.95;76.28;97107.91;5053430;28;20017;-61
2021/10/07 02:57:58;;;;;;;7.93;3.35;;;;;;;6.85;77.63;97115.84;5053420;28;20039;-62
2021/10/07 03:00:24;;;;;;;6.72;3.20;;;;;;;6.90;78.68;97111.47;5053319;28;20474;-61
2021/10/07 03:02:50;;;;;;;9.85;3.47;;;;;;;6.89;77.87;97117.56;5053336;28;20112;-61
2021/10/07 03:05:15;;;;;;;7.20;3.47;;;;;;;6.83;78.60;97102.88;5053213;28;20024;-61
2021/10/07 03:07:41;;;;;;;7.90;3.47;;;;;;;6.85;78.50;97098.53;5053215;28;20108;-61
2021/10/07 03:10:08;;;;;;;17.00;3.53;;;;;;;6.81;79.65;97100.28;5053153;28;20452;-61
2021/10/07 03:12:33;;;;;;;14.00;4.03;;;;;;;6.85;80.12;97102.84;5053196;28;20087;-61
2021/10/07 03:14:59;;;;;;;9.63;3.15;;;;;;;6.93;79.73;97099.25;5053137;28;20494;-61
2021/10/07 03:17:24;;;;;;;8.23;3.15;;;;;;;7.01;79.38;97093.13;5053135;28;20478;-61
2021/10/07 03:19:50;;;;;;;15.32;3.67;;;;;;;7.02;79.25;97095.69;5052917;28;20059;-61
2021/10/07 03:22:16;;;;;;;7.50;3.80;;;;;;;7.17;78.83;97104.13;5052975;28;20370;-61
2021/10/07 03:24:43;;;;;;;5.43;3.40;;;;;;;7.25;79.01;97102.25;5053118;28;20025;-62
2021/10/07 03:27:09;;;;;;;6.65;3.10;;;;;;;7.29;78.74;97100.47;5052992;28;20025;-62
2021/10/07 03:29:34;;;;;;;13.60;3.05;;;;;;;7.38;78.83;97097.75;5053016;28;20056;-61
2021/10/07 03:32:00;;;;;;;7.28;2.78;;;;;;;7.39;78.41;97089.03;5052914;28;20582;-61
2021/10/07 03:34:26;;;;;;;6.22;3.13;;;;;;;7.40;78.61;97090.75;5052805;28;20029;-61
2021/10/07 03:36:52;;;;;;;9.02;3.10;;;;;;;7.42;78.55;97081.19;5052657;28;20045;-61
2021/10/07 03:39:18;;;;;;;9.82;2.90;;;;;;;7.37;78.53;97080.38;5056664;28;20025;-61
2021/10/07 03:41:44;;;;;;;9.00;3.10;;;;;;;7.40;79.02;97076.84;5056924;28;20360;-61
2021/10/07 03:44:10;;;;;;;5.25;2.65;;;;;;;7.46;78.55;97075.03;5056930;28;20025;-61
2021/10/07 03:46:36;;;;;;;9.90;2.80;;;;;;;7.51;77.91;97059.34;5056807;28;20387;-61
2021/10/07 03:49:02;;;;;;;7.72;3.55;;;;;;;7.51;78.14;97058.47;5056823;28;20525;-61
2021/10/07 03:51:28;;;;;;;8.50;2.92;;;;;;;7.43;77.99;97058.59;5056806;28;20025;-61
2021/10/07 03:53:53;;;;;;;5.28;2.65;;;;;;;7.43;77.95;97063.78;5056796;28;20426;-61
2021/10/07 03:56:19;;;;;;;3.35;2.90;;;;;;;7.46;77.31;97066.34;5056760;28;20403;-61
2021/10/07 03:58:45;;;;;;;6.60;2.70;;;;;;;7.43;77.78;97056.00;5056633;28;20114;-61
2021/10/07 04:01:10;;;;;;;6.38;2.88;;;;;;;7.48;77.56;97063.72;5056552;28;20021;-61
2021/10/07 04:03:36;;;;;;;11.10;2.80;;;;;;;7.45;77.07;97060.31;5056608;28;20116;-61
2021/10/07 04:06:01;;;;;;;7.03;3.28;;;;;;;7.47;76.47;97070.69;5056701;28;20437;-61
2021/10/07 04:08:27;;;;;;;6.28;2.70;;;;;;;7.39;76.29;97062.13;5055195;28;20013;-61
2021/10/07 04:10:52;;;;;;;5.90;2.20;;;;;;;7.38;75.80;97069.09;5056339;28;20111;-61
2021/10/07 04:13:19;;;;;;;7.55;2.53;;;;;;;7.36;75.40;97067.41;5056407;28;20055;-62
2021/10/07 04:15:46;;;;;;;6.07;2.58;;;;;;;7.38;75.85;97068.25;5056325;28;20028;-61
2021/10/07 04:18:13;;;;;;;6.22;2.75;;;;;;;7.37;76.20;97061.31;5056217;28;20025;-62
2021/10/07 04:20:39;;;;;;;7.00;2.83;;;;;;;7.32;75.84;97059.63;5056056;28;20100;-61
2021/10/07 04:23:05;;;;;;;9.68;2.65;;;;;;;7.32;75.71;97059.63;5056323;28;20028;-62
2021/10/07 04:25:30;;;;;;;7.28;3.00;;;;;;;7.35;75.69;97057.88;5056158;28;20022;-62
2021/10/07 04:27:56;;;;;;;6.70;2.60;;;;;;;7.36;75.78;97064.78;5056041;28;20028;-62
2021/10/07 04:30:22;;;;;;;9.77;2.53;;;;;;;7.35;75.90;97066.56;5056137;28;20028;-62
2021/10/07 04:32:47;;;;;;;5.07;2.55;;;;;;;7.35;75.74;97063.09;5055924;28;20421;-62
2021/10/07 04:35:13;;;;;;;8.30;3.20;;;;;;;7.32;76.98;97057.03;5056013;28;20088;-62
2021/10/07 04:37:39;;;;;;;13.77;3.13;;;;;;;7.33;77.33;97052.69;5055795;28;20071;-62
2021/10/07 04:40:05;;;;;;;13.45;3.22;;;;;;;7.37;77.27;97051.75;5055848;28;20470;-62
2021/10/07 04:42:31;;;;;;;13.15;3.30;;;;;;;7.38;77.39;97050.88;5055935;28;20017;-62
2021/10/07 04:44:56;;;;;;;9.93;4.45;;;;;;;7.41;77.13;97060.38;5055689;28;20544;-62
2021/10/07 04:47:22;;;;;;;15.43;2.97;;;;;;;7.45;77.09;97064.63;5055731;28;20057;-62
2021/10/07 04:49:48;;;;;;;8.80;3.20;;;;;;;7.40;77.38;97063.84;5055205;28;20037;-62
2021/10/07 04:52:13;;;;;;;10.70;3.25;;;;;;;7.39;77.77;97063.00;5055801;28;20017;-62
2021/10/07 04:54:39;;;;;;;8.48;3.47;;;;;;;7.49;76.77;97075.88;5055871;28;20021;-61
2021/10/07 04:57:04;;;;;;;10.18;3.15;;;;;;;7.56;76.89;97074.88;5055511;28;20017;-62
2021/10/07 04:59:30;;;;;;;11.07;3.72;;;;;;;7.58;77.10;97073.09;5055475;28;20020;-62
2021/10/07 05:01:55;;;;;;;14.15;3.67;;;;;;;7.63;77.61;97070.41;5055421;28;20025;-62
2021/10/07 05:04:21;;;;;;;11.73;3.50;;;;;;;7.68;78.51;97061.63;5055345;28;20021;-62
2021/10/07 05:06:46;;;;;;;5.47;3.00;;;;;;;7.77;78.23;97060.59;5055437;28;20017;-61
2021/10/07 05:09:12;;;;;;;6.43;2.78;;;;;;;7.86;78.17;97074.34;5055479;28;20036;-62
2021/10/07 05:11:37;;;;;;;6.25;3.60;;;;;;;7.99;78.15;97067.16;5055255;28;20029;-62
2021/10/07 05:14:03;;;;;;;10.07;4.68;;;;;;;8.06;78.09;97068.75;5055257;28;20071;-62
2021/10/07 05:16:29;;;;;;;7.57;3.53;;;;;;;8.14;78.84;97072.06;5055303;28;20025;-62
2021/10/07 05:18:54;;;;;;;11.38;3.60;;;;;;;8.28;78.75;97071.78;5055158;28;20033;-61
2021/10/07 05:21:20;;;;;;;5.90;3.17;;;;;;;8.37;78.65;97065.53;5054990;28;20040;-62
2021/10/07 05:23:46;;;;;;;9.00;3.17;;;;;;;8.45;78.64;97062.75;5055045;28;20032;-62
2021/10/07 05:26:11;;;;;;;18.90;4.05;;;;;;;8.47;79.27;97061.84;5055139;28;20029;-61
2021/10/07 05:28:37;;;;;;;8.70;2.90;;;;;;;8.57;79.31;97069.50;5055082;28;20124;-61
2021/10/07 05:31:03;;;;;;;9.80;3.80;;;;;;;8.65;79.46;97077.16;5054963;28;20040;-61
2021/10/07 05:33:29;;;;;;;11.55;4.70;;;;;;;8.71;79.21;97074.41;5054770;28;20025;-61
2021/10/07 05:35:55;;;;;;;8.98;4.07;;;;;;;8.81;79.91;97069.84;5054547;28;20044;-62
2021/10/07 05:38:20;;;;;;;15.20;4.65;;;;;;;8.90;80.36;97064.44;5054998;28;20033;-62
2021/10/07 05:40:46;;;;;;;10.18;4.32;;;;;;;8.98;80.43;97059.03;5054790;28;20098;-62
2021/10/07 05:43:12;;;;;;;12.88;3.90;;;;;;;9.09;81.02;97062.25;5054777;28;20032;-61
2021/10/07 05:45:38;;;;;;;12.55;4.68;;;;;;;9.25;81.12;97068.84;5054560;28;20048;-62
2021/10/07 05:48:04;;;;;;;10.15;3.88;;;;;;;9.34;81.13;97066.03;5054485;28;20021;-61
2021/10/07 05:50:31;;;;;;;12.52;4.07;;;;;;;9.43;80.34;97057.97;5054645;28;20383;-61
2021/10/07 05:52:57;;;;;;;22.92;9.52;;;;;;;9.54;80.38;97060.28;5054544;28;20098;-61
2021/10/07 05:55:22;;;;;;;10.20;4.95;;;;;;;9.61;80.50;97050.56;5054420;28;20035;-61
2021/10/07 05:57:49;;;;;;;13.32;5.07;;;;;;;9.64;79.99;97047.00;5054449;28;20104;-62
2021/10/07 06:00:15;;;;;;;13.40;4.15;;;;;;;9.70;80.31;97052.91;5053547;28;20043;-62
2021/10/07 06:02:41;;;;;;;7.22;3.97;;;;;;;9.73;80.00;97059.81;5054261;28;20025;-62
2021/10/07 06:05:09;;;;;;;13.68;5.03;;;;;;;9.81;79.91;97067.47;5054229;28;20064;-61
2021/10/07 06:07:35;;;;;;;15.80;4.50;;;;;;;9.85;79.48;97062.09;5054304;28;20025;-62
2021/10/07 06:10:01;;;;;;;9.35;3.97;;;;;;;9.93;79.28;97058.44;5054150;28;20101;-62
2021/10/07 06:12:26;;;;;;;9.90;3.95;;;;;;;10.02;79.74;97063.41;5054214;28;20021;-62
2021/10/07 06:14:52;;;;;;;15.48;4.25;;;;;;;10.06;79.98;97057.19;5054106;28;20025;-62
2021/10/07 06:17:18;;;;;;;15.10;4.25;;;;;;;10.13;78.59;97064.84;5054060;28;20483;-62
2021/10/07 06:19:45;;;;;;;10.82;4.13;;;;;;;10.21;78.76;97070.75;5054089;28;20028;-62
2021/10/07 06:22:11;;;;;;;12.10;3.88;;;;;;;10.24;78.09;97075.88;5053946;28;20033;-62
2021/10/07 06:24:37;;;;;;;6.10;3.30;;;;;;;10.29;77.59;97081.00;5053814;28;20470;-62
2021/10/07 06:27:03;;;;;;;7.03;3.70;;;;;;;10.32;77.80;97084.34;5053900;28;20451;-62
2021/10/07 06:29:29;;;;;;;8.38;3.60;;;;;;;10.45;78.30;97084.03;5053916;28;20049;-62
2021/10/07 06:31:54;;;;;;;9.82;4.03;;;;;;;10.52;77.49;97092.56;5053835;28;20071;-62
2021/10/07 06:34:20;;;;;;;12.57;4.15;;;;;;;10.55;76.96;97085.50;5053591;28;20047;-62
2021/10/07 06:36:45;;;;;;;8.93;4.25;;;;;;;10.66;76.57;97084.31;5053490;28;20049;-62
2021/10/07 06:39:11;;;;;;;9.77;4.07;;;;;;;10.73;76.24;97081.47;5053726;28;20021;-62
2021/10/07 06:41:37;;;;;;;13.50;3.28;;;;;;;10.81;75.67;97072.53;5053579;28;20078;-62
2021/10/07 06:44:02;;;;;;;8.18;2.80;;;;;;;10.85;74.99;97066.31;5053582;28;20390;-62
2021/10/07 06:46:28;;;;;;;8.20;2.92;;;;;;;10.84;74.54;97061.97;5053453;28;20067;-62
2021/10/07 06:48:55;;;;;;;6.05;2.72;;;;;;;10.97;74.43;97060.69;5053453;28;20028;-62
2021/10/07 06:51:24;;;;;;;7.50;3.25;;;;;;;11.15;74.27;97063.63;5053464;28;20036;-62
2021/10/07 06:53:54;;;;;;;10.05;2.83;;;;;;;11.32;73.64;97075.31;5052283;28;20456;-62
2021/10/07 06:56:20;;;;;;;12.10;3.25;;;;;;;11.44;71.69;97085.38;5053433;28;20028;-62
2021/10/07 06:58:48;;;;;;;13.02;3.63;;;;;;;11.49;70.40;97087.84;5053266;28;20021;-62
2021/10/07 07:01:13;;;;;;;6.43;2.97;;;;;;;11.57;70.91;97085.84;5053264;28;20029;-62
2021/10/07 07:03:39;;;;;;;9.23;2.80;;;;;;;11.67;68.78;97090.75;5053294;28;20033;-62
2021/10/07 07:06:04;;;;;;;5.75;2.90;;;;;;;11.74;70.07;97098.38;5053177;28;20028;-62
2021/10/07 07:08:30;;;;;;;11.55;2.33;;;;;;;11.81;69.20;97096.41;5053187;28;20025;-61
2021/10/07 07:10:56;;;;;;;15.60;3.33;;;;;;;11.80;68.69;97093.84;5053098;28;20371;-62
2021/10/07 07:13:21;;;;;;;12.55;3.15;;;;;;;11.85;68.78;97094.53;5053174;28;20021;-62
2021/10/07 07:15:47;;;;;;;14.68;2.72;;;;;;;11.90;68.54;97094.38;5053279;28;20029;-62
2021/10/07 07:18:12;;;;;;;11.27;2.65;;;;;;;12.00;68.28;97091.38;5053064;28;20036;-62
2021/10/07 07:20:38;;;;;;;10.50;2.50;;;;;;;12.00;67.65;97093.16;5053064;28;20036;-62
2021/10/07 07:23:10;;;;;;;13.65;2.92;;;;;;;12.07;68.06;97094.66;5053061;28;20083;-62
2021/10/07 07:25:36;;;;;;;10.85;2.55;;;;;;;12.07;67.77;97083.34;5053102;28;20538;-62
2021/10/07 07:28:03;;;;;;;15.00;2.55;;;;;;;12.12;67.90;97084.03;5053050;28;20475;-61
2021/10/07 07:30:28;;;;;;;8.88;2.78;;;;;;;12.17;67.41;97082.09;5053029;28;20025;-62
2021/10/07 07:32:54;;;;;;;14.32;3.08;;;;;;;12.23;67.86;97083.66;5053006;28;20017;-62
2021/10/07 07:35:19;;;;;;;13.38;2.50;;;;;;;12.33;67.45;97092.03;5052892;28;20044;-62
2021/10/07 07:37:45;;;;;;;7.63;2.92;;;;;;;12.36;69.38;97084.91;5052663;28;20124;-62
2021/10/07 07:40:11;;;;;;;13.50;3.30;;;;;;;12.46;69.89;97084.59;5051535;28;20029;-62
2021/10/07 07:42:37;;;;;;;10.98;2.85;;;;;;;12.60;70.16;97068.31;5053082;28;20475;-62
2021/10/07 07:45:05;;;;;;;12.13;3.00;;;;;;;12.67;69.33;97059.28;5052776;28;20075;-61
2021/10/07 07:47:31;;;;;;;7.30;2.72;;;;;;;12.80;66.58;97075.44;5052712;28;20128;-62
2021/10/07 07:49:57;;;;;;;12.50;3.08;;;;;;;12.84;65.58;97078.78;5052758;28;20474;-62
2021/10/07 07:52:23;;;;;;;14.23;2.67;;;;;;;12.97;65.13;97076.53;5052955;28;20021;-62
2021/10/07 07:54:49;;;;;;;14.45;3.33;;;;;;;13.11;65.20;97081.25;5052684;28;20143;-62
2021/10/07 07:57:15;;;;;;;14.23;3.53;;;;;;;13.30;63.10;97098.91;5052693;28;20033;-62
2021/10/07 07:59:41;;;;;;;11.45;2.70;;;;;;;13.41;62.89;97096.69;5052699;28;20040;-62
2021/10/07 08:02:07;;;;;;;11.07;2.80;;;;;;;13.46;60.45;97099.97;5052494;28;20025;-61
2021/10/07 08:04:32;;;;;;;19.20;2.70;;;;;;;13.58;60.73;97095.19;5052723;28;20490;-62
2021/10/07 08:06:59;;;;;;;14.90;2.70;;;;;;;13.70;60.02;97099.91;5052722;28;20044;-61
2021/10/07 08:09:26;;;;;;;10.85;3.10;;;;;;;13.67;60.09;97101.84;5052596;28;20381;-61
2021/10/07 08:11:52;;;;;;;11.95;2.15;;;;;;;13.59;59.43;97100.38;5052489;28;20035;-61
2021/10/07 08:14:18;;;;;;;9.82;2.70;;;;;;;13.66;59.00;97095.72;5052537;28;20017;-61
2021/10/07 08:16:45;;;;;;;9.35;2.28;;;;;;;13.61;59.44;97108.19;5052568;28;20074;-61
2021/10/07 08:19:10;;;;;;;13.75;2.40;;;;;;;13.52;59.00;97105.00;5052571;28;20108;-61
2021/10/07 08:21:40;;;;;;;10.07;2.58;;;;;;;13.46;60.51;97107.03;5052423;28;20109;-61
2021/10/07 08:24:09;;;;;;;13.40;3.00;;;;;;;13.49;60.69;97099.03;5054095;28;20124;-61
2021/10/07 08:26:34;;;;;;;16.25;2.17;;;;;;;13.58;61.26;97103.91;5056268;28;20033;-61
2021/10/07 08:29:00;;;;;;;15.68;2.40;;;;;;;13.70;59.59;97102.53;5056207;28;20100;-62
2021/10/07 08:31:25;;;;;;;8.88;2.60;;;;;;;13.62;58.90;97121.28;5056188;28;20033;-61
2021/10/07 08:33:51;;;;;;;21.38;3.47;;;;;;;13.51;59.55;97102.44;5056184;28;20378;-62
2021/10/07 08:36:17;;;;;;;11.90;2.20;;;;;;;13.68;59.24;97116.69;5055699;28;20044;-61
2021/10/07 08:38:42;;;;;;;10.18;2.42;;;;;;;13.63;59.70;97106.34;5056007;28;20021;-61
2021/10/07 08:41:08;;;;;;;17.55;2.80;;;;;;;13.71;59.62;97112.16;5055875;28;20040;-61
2021/10/07 08:43:34;;;;;;;20.67;2.70;;;;;;;13.72;59.48;97107.72;5055855;28;20100;-61
2021/10/07 08:46:09;;;;;;;12.75;2.38;;;;;;;13.72;59.72;97121.75;5055908;28;20025;-61
2021/10/07 08:48:34;;;;;;;20.70;2.97;;;;;;;13.75;59.66;97113.72;5055744;28;20048;-61
2021/10/07 08:51:00;;;;;;;12.18;2.85;;;;;;;13.67;58.60;97117.59;5055759;28;20458;-61
2021/10/07 08:53:26;;;;;;;12.18;2.80;;;;;;;13.58;59.69;97106.53;5054409;28;20121;-61
2021/10/07 08:55:51;;;;;;;8.25;2.45;;;;;;;13.42;59.20;97097.56;5055720;28;20032;-61
2021/10/07 08:58:17;;;;;;;15.90;2.83;;;;;;;13.33;59.83;97102.25;5055460;28;20036;-61
2021/10/07 09:00:43;;;;;;;18.85;4.55;;;;;;;13.23;59.23;97103.53;5055471;28;20029;-61
2021/10/07 09:03:22;;;;;;;15.80;3.08;;;;;;;13.06;60.59;97102.44;5055641;28;20387;-61
2021/10/07 09:05:49;;;;;;;18.58;4.00;;;;;;;13.07;60.69;97121.69;5055531;28;20086;-61
2021/10/07 09:08:16;;;;;;;22.00;4.53;;;;;;;12.96;61.42;97115.06;5055536;28;20430;-61
2021/10/07 09:10:55;;;;;;;15.88;4.00;;;;;;;12.92;62.22;97112.63;5055246;28;20021;-61
2021/10/07 09:13:25;;;;;;;15.43;3.08;;;;;;;12.99;62.94;97122.84;5055245;28;20395;-61
2021/10/07 09:15:55;;;;;;;27.20;4.22;;;;;;;13.02;63.00;97122.72;5055345;28;20056;-61
2021/10/07 09:18:22;;;;;;;11.65;3.42;;;;;;;13.08;62.91;97124.25;5055194;28;20029;-61
2021/10/07 09:20:50;;;;;;;14.93;3.70;;;;;;;13.19;62.11;97128.22;5055171;28;20047;-61
2021/10/07 09:23:21;;;;;;;25.88;4.10;;;;;;;13.18;63.24;97118.66;5055037;28;20029;-61
2021/10/07 09:26:00;;;;;;;13.40;3.70;;;;;;;13.18;63.99;97130.00;5055162;28;20078;-61
2021/10/07 09:28:29;;;;;;;26.83;3.50;;;;;;;13.23;64.62;97127.19;5055201;28;20040;-61
2021/10/07 09:30:57;;;;;;;16.17;4.25;;;;;;;13.18;65.21;97116.03;5055087;28;20017;-61
2021/10/07 09:33:38;;;;;;;12.68;3.50;;;;;;;13.10;65.93;97118.94;5054971;28;20277;-61
2021/10/07 09:36:17;;;;;;;21.20;4.22;;;;;;;13.10;66.51;97114.53;5054570;28;20112;-62
2021/10/07 09:38:49;;;;;;;12.57;3.55;;;;;;;13.07;65.67;97114.66;5053491;28;20056;-61
2021/10/07 09:41:18;;;;;;;15.93;4.57;;;;;;;13.10;67.06;97105.81;5054728;28;20021;-61
2021/10/07 09:43:51;;;;;;;11.80;3.53;;;;;;;13.18;67.27;97095.00;5054747;28;20055;-61
2021/10/07 09:46:49;;;;;;;18.55;3.38;;;;;;;13.22;66.19;97105.31;5054746;28;20091;-61
2021/10/07 09:49:20;;;;;;;24.25;3.85;;;;;;;13.29;66.89;97115.56;5054483;28;20021;-62
2021/10/07 09:51:48;;;;;;;;;;;;;;;13.33;66.14;97104.88;5055034;28;20032;-62
2021/10/07 09:54:19;;;;;;;12.90;3.58;;;;;;;13.22;67.21;97102.69;5053299;28;20281;-62
2021/10/07 09:56:56;;;;;;;11.05;2.88;;;;;;;13.22;67.42;97104.47;5054497;28;20120;-61
2021/10/07 09:59:24;;;;;;;15.85;3.80;;;;;;;13.18;67.13;97100.25;5054406;28;20056;-61
2021/10/07 10:01:52;;;;;;;21.77;3.47;;;;;;;13.20;67.72;97101.91;5054334;28;20032;-61
2021/10/07 10:04:19;;;;;;;18.98;3.47;;;;;;;13.18;66.54;97098.47;5054396;28;20119;-62
2021/10/07 10:06:44;;;;;;;13.00;3.70;;;;;;;13.26;66.38;97103.41;5054379;28;20060;-62
2021/10/07 10:09:10;;;;;;;20.17;3.80;;;;;;;13.25;65.83;97106.97;5054272;28;20100;-62
2021/10/07 10:11:36;;;;;;;11.68;3.55;;;;;;;13.18;66.53;97111.59;5054216;28;20020;-62
2021/10/07 10:14:01;;;;;;;13.88;3.55;;;;;;;13.11;65.17;97104.88;5054157;28;20023;-61
2021/10/07 10:16:29;;;;;;;25.50;4.10;;;;;;;13.11;66.71;97092.63;5054140;28;20029;-61
2021/10/07 10:18:58;;;;;;;22.85;4.60;;;;;;;13.22;66.67;97096.59;5054087;28;20025;-61
2021/10/07 10:21:27;;;;;;;22.90;3.38;;;;;;;13.36;65.79;97098.63;5053957;28;20032;-61
2021/10/07 10:23:53;;;;;;;19.05;3.65;;;;;;;13.49;65.32;97099.88;5054057;28;20067;-62
2021/10/07 10:26:19;;;;;;;13.20;4.32;;;;;;;13.64;65.60;97101.03;5054035;28;20031;-62
2021/10/07 10:28:51;;;;;;;18.33;3.70;;;;;;;13.56;65.29;97094.38;5053881;28;20017;-62
2021/10/07 10:31:29;;;;;;;9.55;3.58;;;;;;;13.60;66.64;97099.44;5053860;28;20037;-62
2021/10/07 10:34:16;;;;;;;11.13;3.88;;;;;;;13.66;66.13;97094.88;5053782;28;20033;-62
2021/10/07 10:36:57;;;;;;;16.98;4.93;;;;;;;13.56;65.89;97099.63;5053595;28;20057;-62
2021/10/07 10:39:27;;;;;;;15.10;3.88;;;;;;;13.44;66.79;97091.31;5053666;28;20032;-62
2021/10/07 10:42:07;;;;;;;19.80;5.25;;;;;;;13.29;66.22;97089.28;5053505;28;20107;-61
2021/10/07 10:44:37;;;;;;;18.90;4.43;;;;;;;13.08;67.60;97091.88;5053476;28;20546;-61
2021/10/07 10:47:05;;;;;;;13.48;4.40;;;;;;;12.82;68.31;97088.50;5052998;28;20033;-61
2021/10/07 10:49:52;;;;;;;16.00;5.07;;;;;;;12.89;71.23;97087.34;5053466;28;20047;-61
2021/10/07 10:52:28;;;;;;;18.42;4.57;;;;;;;12.96;68.92;97086.19;5053608;28;20032;-62
2021/10/07 10:54:56;;;;;;;13.65;4.40;;;;;;;12.96;68.02;97083.56;5053429;28;20029;-61
2021/10/07 10:57:33;;;;;;;14.68;4.00;;;;;;;13.02;69.14;97087.72;5053366;28;20505;-62
2021/10/07 11:00:30;;;;;;;23.25;4.82;;;;;;;13.16;69.81;97081.94;5053283;28;20380;-61
2021/10/07 11:03:08;;;;;;;13.38;4.97;;;;;;;13.09;70.07;97076.06;5053382;28;20040;-61
2021/10/07 11:05:41;;;;;;;21.95;4.43;;;;;;;12.96;69.93;97066.94;5053367;28;20029;-62
2021/10/07 11:08:09;;;;;;;17.08;4.55;;;;;;;12.91;70.45;97066.28;5053186;28;20052;-62
2021/10/07 11:10:40;;;;;;;14.18;4.63;;;;;;;12.82;70.35;97070.13;5051862;28;20021;-62
2021/10/07 11:13:19;;;;;;;15.20;4.78;;;;;;;12.87;70.22;97070.78;5053278;28;20029;-62
2021/10/07 11:15:52;;;;;;;24.02;4.70;;;;;;;12.91;70.75;97066.28;5053306;28;20028;-62
2021/10/07 11:18:18;;;;;;;17.33;4.13;;;;;;;12.84;71.01;97065.66;5053038;28;20067;-61
2021/10/07 11:20:43;;;;;;;12.77;4.43;;;;;;;12.81;71.15;97056.13;5053029;28;20048;-61
2021/10/07 11:23:17;;;;;;;12.57;4.82;;;;;;;12.76;71.87;97058.94;5053194;28;20438;-61
2021/10/07 11:25:47;;;;;;;24.50;4.57;;;;;;;12.84;72.31;97052.53;5053161;28;20025;-61
2021/10/07 11:28:12;;;;;;;21.20;4.57;;;;;;;12.85;72.13;97054.22;5053289;28;20017;-62
2021/10/07 11:30:41;;;;;;;15.73;4.80;;;;;;;12.85;71.36;97047.22;5053069;28;20028;-61
2021/10/07 11:33:07;;;;;;;16.67;4.38;;;;;;;12.95;71.17;97054.75;5052853;28;20021;-61
2021/10/07 11:35:34;;;;;;;17.20;4.72;;;;;;;13.12;70.80;97054.06;5052977;28;20048;-62
2021/10/07 11:38:07;;;;;;;16.80;4.10;;;;;;;13.27;70.58;97052.56;5052701;28;20045;-61
2021/10/07 11:40:47;;;;;;;11.88;3.50;;;;;;;13.37;68.57;97059.16;5053009;28;20087;-62